sensor_id;sensor_type;location;lat;lon;timestamp;P1;durP1;ratioP1;P2;durP2;ratioP2
5559;SDS011;2803;47.916;8.074;2022-09-12T00:00:23;3.40;;;2.53;;
5559;SDS011;2803;47.916;8.074;2022-09-12T00:02:50;3.60;;;2.47;;
5559;SDS011;2803;47.916;8.074;2022-09-12T00:05:18;2.70;;;2.20;;
5559;SDS011;2803;47.916;8.074;2022-09-12T00:07:46;7.03;;;2.33;;
5559;SDS011;2803;47.916;8.074;2022-09-12T00:10:13;3.03;;;2.10;;
5559;SDS011;2803;47.916;8.074;2022-09-12T00:12:40;2.60;;;2.20;;
5559;SDS011;2803;47.916;8.074;2022-09-12T00:15:07;7.50;;;2.60;;
5559;SDS011;2803;47.916;8.074;2022-09-12T00:17:36;3.00;;;2.10;;
5559;SDS011;2803;47.916;8.074;2022-09-12T00:20:03;2.93;;;2.20;;
5559;SDS011;2803;47.916;8.074;2022-09-12T00:22:32;4.27;;;2.70;;
5559;SDS011;2803;47.916;8.074;2022-09-12T00:25:00;4.80;;;2.17;;
5559;SDS011;2803;47.916;8.074;2022-09-12T00:27:27;3.50;;;2.30;;
5559;SDS011;2803;47.916;8.074;2022-09-12T00:29:54;2.73;;;2.30;;
5559;SDS011;2803;47.916;8.074;2022-09-12T00:32:20;3.23;;;2.70;;
5559;SDS011;2803;47.916;8.074;2022-09-12T00:34:47;2.90;;;2.30;;
5559;SDS011;2803;47.916;8.074;2022-09-12T00:37:14;3.20;;;2.60;;
5559;SDS011;2803;47.916;8.074;2022-09-12T00:39:40;2.27;;;2.07;;
5559;SDS011;2803;47.916;8.074;2022-09-12T00:42:08;2.80;;;2.10;;
5559;SDS011;2803;47.916;8.074;2022-09-12T00:44:46;2.37;;;2.13;;
5559;SDS011;2803;47.916;8.074;2022-09-12T00:47:16;6.50;;;2.13;;
5559;SDS011;2803;47.916;8.074;2022-09-12T00:49:47;2.47;;;1.97;;
5559;SDS011;2803;47.916;8.074;2022-09-12T00:52:17;4.60;;;2.07;;
5559;SDS011;2803;47.916;8.074;2022-09-12T00:54:48;5.03;;;2.70;;
5559;SDS011;2803;47.916;8.074;2022-09-12T00:57:21;2.43;;;2.00;;
5559;SDS011;2803;47.916;8.074;2022-09-12T00:59:52;2.87;;;1.80;;
5559;SDS011;2803;47.916;8.074;2022-09-12T01:02:21;3.63;;;2.17;;
5559;SDS011;2803;47.916;8.074;2022-09-12T01:04:48;2.63;;;2.03;;
5559;SDS011;2803;47.916;8.074;2022-09-12T01:07:15;2.50;;;1.70;;
5559;SDS011;2803;47.916;8.074;2022-09-12T01:09:42;2.00;;;1.80;;
5559;SDS011;2803;47.916;8.074;2022-09-12T01:12:11;2.50;;;2.30;;
5559;SDS011;2803;47.916;8.074;2022-09-12T01:14:40;2.17;;;1.80;;
5559;SDS011;2803;47.916;8.074;2022-09-12T01:17:09;2.23;;;1.93;;
5559;SDS011;2803;47.916;8.074;2022-09-12T01:19:44;2.20;;;2.00;;
5559;SDS011;2803;47.916;8.074;2022-09-12T01:22:35;4.07;;;2.00;;
5559;SDS011;2803;47.916;8.074;2022-09-12T01:25:20;10.23;;;5.80;;
5559;SDS011;2803;47.916;8.074;2022-09-12T01:28:01;4.40;;;2.30;;
5559;SDS011;2803;47.916;8.074;2022-09-12T01:30:43;2.60;;;2.20;;
5559;SDS011;2803;47.916;8.074;2022-09-12T01:33:17;3.80;;;1.83;;
5559;SDS011;2803;47.916;8.074;2022-09-12T01:35:56;2.47;;;2.00;;
5559;SDS011;2803;47.916;8.074;2022-09-12T01:38:35;10.97;;;1.90;;
5559;SDS011;2803;47.916;8.074;2022-09-12T01:41:07;1.70;;;1.60;;
5559;SDS011;2803;47.916;8.074;2022-09-12T01:43:41;8.83;;;1.67;;
5559;SDS011;2803;47.916;8.074;2022-09-12T01:46:15;2.30;;;2.10;;
5559;SDS011;2803;47.916;8.074;2022-09-12T01:48:45;2.67;;;2.13;;
5559;SDS011;2803;47.916;8.074;2022-09-12T01:51:17;2.60;;;2.20;;
5559;SDS011;2803;47.916;8.074;2022-09-12T01:53:49;2.80;;;2.40;;
5559;SDS011;2803;47.916;8.074;2022-09-12T01:56:21;2.30;;;2.03;;
5559;SDS011;2803;47.916;8.074;2022-09-12T01:58:51;2.83;;;2.07;;
5559;SDS011;2803;47.916;8.074;2022-09-12T02:01:25;3.00;;;2.17;;
5559;SDS011;2803;47.916;8.074;2022-09-12T02:03:55;1.63;;;1.53;;
5559;SDS011;2803;47.916;8.074;2022-09-12T02:06:29;3.30;;;2.43;;
5559;SDS011;2803;47.916;8.074;2022-09-12T02:08:59;3.60;;;1.97;;
5559;SDS011;2803;47.916;8.074;2022-09-12T02:11:28;3.37;;;1.90;;
5559;SDS011;2803;47.916;8.074;2022-09-12T02:13:59;2.10;;;1.90;;
5559;SDS011;2803;47.916;8.074;2022-09-12T02:16:31;3.10;;;2.20;;
5559;SDS011;2803;47.916;8.074;2022-09-12T02:19:02;2.40;;;1.87;;
5559;SDS011;2803;47.916;8.074;2022-09-12T02:21:34;2.27;;;2.07;;
5559;SDS011;2803;47.916;8.074;2022-09-12T02:24:04;3.07;;;2.30;;
5559;SDS011;2803;47.916;8.074;2022-09-12T02:26:35;2.00;;;1.80;;
5559;SDS011;2803;47.916;8.074;2022-09-12T02:29:08;1.70;;;1.60;;
5559;SDS011;2803;47.916;8.074;2022-09-12T02:31:38;3.73;;;1.90;;
5559;SDS011;2803;47.916;8.074;2022-09-12T02:34:12;3.37;;;1.97;;
5559;SDS011;2803;47.916;8.074;2022-09-12T02:36:48;2.37;;;1.97;;
5559;SDS011;2803;47.916;8.074;2022-09-12T02:39:21;4.57;;;2.30;;
5559;SDS011;2803;47.916;8.074;2022-09-12T02:41:49;3.50;;;2.00;;
5559;SDS011;2803;47.916;8.074;2022-09-12T02:44:16;2.03;;;1.83;;
5559;SDS011;2803;47.916;8.074;2022-09-12T02:46:45;2.93;;;1.90;;
5559;SDS011;2803;47.916;8.074;2022-09-12T02:49:14;2.13;;;1.93;;
5559;SDS011;2803;47.916;8.074;2022-09-12T02:51:42;1.87;;;1.77;;
5559;SDS011;2803;47.916;8.074;2022-09-12T02:54:09;1.70;;;1.60;;
5559;SDS011;2803;47.916;8.074;2022-09-12T02:56:39;1.50;;;1.37;;
5559;SDS011;2803;47.916;8.074;2022-09-12T02:59:07;2.00;;;1.80;;
5559;SDS011;2803;47.916;8.074;2022-09-12T03:01:43;1.83;;;1.60;;
5559;SDS011;2803;47.916;8.074;2022-09-12T03:04:28;1.80;;;1.70;;
5559;SDS011;2803;47.916;8.074;2022-09-12T03:07:10;2.33;;;1.93;;
5559;SDS011;2803;47.916;8.074;2022-09-12T03:09:42;2.43;;;2.00;;
5559;SDS011;2803;47.916;8.074;2022-09-12T03:12:17;1.77;;;1.67;;
5559;SDS011;2803;47.916;8.074;2022-09-12T03:14:57;3.03;;;1.70;;
5559;SDS011;2803;47.916;8.074;2022-09-12T03:17:40;2.20;;;1.50;;
5559;SDS011;2803;47.916;8.074;2022-09-12T03:20:14;1.93;;;1.70;;
5559;SDS011;2803;47.916;8.074;2022-09-12T03:22:49;2.20;;;1.77;;
5559;SDS011;2803;47.916;8.074;2022-09-12T03:25:20;1.80;;;1.70;;
5559;SDS011;2803;47.916;8.074;2022-09-12T03:27:51;2.07;;;1.87;;
5559;SDS011;2803;47.916;8.074;2022-09-12T03:30:22;1.87;;;1.70;;
5559;SDS011;2803;47.916;8.074;2022-09-12T03:32:51;2.10;;;1.73;;
5559;SDS011;2803;47.916;8.074;2022-09-12T03:35:19;1.63;;;1.53;;
5559;SDS011;2803;47.916;8.074;2022-09-12T03:37:48;9.37;;;1.80;;
5559;SDS011;2803;47.916;8.074;2022-09-12T03:40:15;4.77;;;1.90;;
5559;SDS011;2803;47.916;8.074;2022-09-12T03:42:42;1.60;;;1.50;;
5559;SDS011;2803;47.916;8.074;2022-09-12T03:45:10;2.37;;;1.90;;
5559;SDS011;2803;47.916;8.074;2022-09-12T03:47:37;2.27;;;1.70;;
5559;SDS011;2803;47.916;8.074;2022-09-12T03:50:05;3.00;;;1.70;;
5559;SDS011;2803;47.916;8.074;2022-09-12T03:52:32;1.77;;;1.33;;
5559;SDS011;2803;47.916;8.074;2022-09-12T03:54:58;1.90;;;1.80;;
5559;SDS011;2803;47.916;8.074;2022-09-12T03:57:25;2.80;;;1.90;;
5559;SDS011;2803;47.916;8.074;2022-09-12T03:59:52;1.90;;;1.80;;
5559;SDS011;2803;47.916;8.074;2022-09-12T04:02:18;2.27;;;2.07;;
5559;SDS011;2803;47.916;8.074;2022-09-12T04:04:45;2.20;;;1.67;;
5559;SDS011;2803;47.916;8.074;2022-09-12T04:07:14;2.17;;;2.00;;
5559;SDS011;2803;47.916;8.074;2022-09-12T04:09:41;1.90;;;1.80;;
5559;SDS011;2803;47.916;8.074;2022-09-12T04:12:07;2.33;;;1.60;;
5559;SDS011;2803;47.916;8.074;2022-09-12T04:14:34;4.50;;;1.90;;
5559;SDS011;2803;47.916;8.074;2022-09-12T04:17:01;3.00;;;1.83;;
5559;SDS011;2803;47.916;8.074;2022-09-12T04:19:28;2.37;;;1.60;;
5559;SDS011;2803;47.916;8.074;2022-09-12T04:21:54;1.97;;;1.77;;
5559;SDS011;2803;47.916;8.074;2022-09-12T04:24:22;1.80;;;1.60;;
5559;SDS011;2803;47.916;8.074;2022-09-12T04:26:49;1.87;;;1.63;;
5559;SDS011;2803;47.916;8.074;2022-09-12T04:29:15;2.00;;;1.50;;
5559;SDS011;2803;47.916;8.074;2022-09-12T04:31:42;4.17;;;1.60;;
5559;SDS011;2803;47.916;8.074;2022-09-12T04:34:09;2.63;;;1.77;;
5559;SDS011;2803;47.916;8.074;2022-09-12T04:36:36;2.83;;;1.83;;
5559;SDS011;2803;47.916;8.074;2022-09-12T04:39:03;1.70;;;1.60;;
5559;SDS011;2803;47.916;8.074;2022-09-12T04:41:34;2.27;;;1.70;;
5559;SDS011;2803;47.916;8.074;2022-09-12T04:44:03;1.70;;;1.60;;
5559;SDS011;2803;47.916;8.074;2022-09-12T04:46:32;1.90;;;1.70;;
5559;SDS011;2803;47.916;8.074;2022-09-12T04:49:00;1.60;;;1.50;;
5559;SDS011;2803;47.916;8.074;2022-09-12T04:51:27;2.40;;;1.60;;
5559;SDS011;2803;47.916;8.074;2022-09-12T04:53:56;1.57;;;1.47;;
5559;SDS011;2803;47.916;8.074;2022-09-12T04:56:25;2.73;;;1.80;;
5559;SDS011;2803;47.916;8.074;2022-09-12T04:58:55;4.43;;;1.87;;
5559;SDS011;2803;47.916;8.074;2022-09-12T05:01:22;3.80;;;1.60;;
5559;SDS011;2803;47.916;8.074;2022-09-12T05:03:49;3.50;;;1.90;;
5559;SDS011;2803;47.916;8.074;2022-09-12T05:06:16;1.90;;;1.70;;
5559;SDS011;2803;47.916;8.074;2022-09-12T05:08:44;4.07;;;1.80;;
5559;SDS011;2803;47.916;8.074;2022-09-12T05:11:12;1.90;;;1.80;;
5559;SDS011;2803;47.916;8.074;2022-09-12T05:13:42;1.50;;;1.40;;
5559;SDS011;2803;47.916;8.074;2022-09-12T05:16:11;1.60;;;1.50;;
5559;SDS011;2803;47.916;8.074;2022-09-12T05:18:40;4.03;;;1.80;;
5559;SDS011;2803;47.916;8.074;2022-09-12T05:21:08;2.23;;;2.03;;
5559;SDS011;2803;47.916;8.074;2022-09-12T05:23:36;2.03;;;1.83;;
5559;SDS011;2803;47.916;8.074;2022-09-12T05:26:04;2.30;;;2.10;;
5559;SDS011;2803;47.916;8.074;2022-09-12T05:28:32;5.50;;;2.03;;
5559;SDS011;2803;47.916;8.074;2022-09-12T05:31:00;2.47;;;1.70;;
5559;SDS011;2803;47.916;8.074;2022-09-12T05:33:29;1.70;;;1.60;;
5559;SDS011;2803;47.916;8.074;2022-09-12T05:35:56;2.50;;;1.90;;
5559;SDS011;2803;47.916;8.074;2022-09-12T05:38:23;2.00;;;1.80;;
5559;SDS011;2803;47.916;8.074;2022-09-12T05:40:53;2.00;;;1.90;;
5559;SDS011;2803;47.916;8.074;2022-09-12T05:43:19;2.17;;;1.90;;
5559;SDS011;2803;47.916;8.074;2022-09-12T05:45:46;24.80;;;5.00;;
5559;SDS011;2803;47.916;8.074;2022-09-12T05:48:13;17.40;;;3.97;;
5559;SDS011;2803;47.916;8.074;2022-09-12T05:50:40;3.03;;;2.30;;
5559;SDS011;2803;47.916;8.074;2022-09-12T05:53:07;3.70;;;2.40;;
5559;SDS011;2803;47.916;8.074;2022-09-12T05:55:34;3.20;;;2.40;;
5559;SDS011;2803;47.916;8.074;2022-09-12T05:58:00;2.17;;;1.97;;
5559;SDS011;2803;47.916;8.074;2022-09-12T06:00:27;4.73;;;2.50;;
5559;SDS011;2803;47.916;8.074;2022-09-12T06:02:53;3.63;;;2.23;;
5559;SDS011;2803;47.916;8.074;2022-09-12T06:05:20;10.40;;;2.57;;
5559;SDS011;2803;47.916;8.074;2022-09-12T06:07:48;7.30;;;2.10;;
5559;SDS011;2803;47.916;8.074;2022-09-12T06:10:15;8.00;;;2.70;;
5559;SDS011;2803;47.916;8.074;2022-09-12T06:12:42;4.03;;;2.33;;
5559;SDS011;2803;47.916;8.074;2022-09-12T06:15:08;4.03;;;2.47;;
5559;SDS011;2803;47.916;8.074;2022-09-12T06:17:35;6.03;;;2.00;;
5559;SDS011;2803;47.916;8.074;2022-09-12T06:20:02;3.23;;;2.33;;
5559;SDS011;2803;47.916;8.074;2022-09-12T06:22:29;2.23;;;2.03;;
5559;SDS011;2803;47.916;8.074;2022-09-12T06:24:57;3.13;;;1.93;;
5559;SDS011;2803;47.916;8.074;2022-09-12T06:27:24;2.40;;;2.00;;
5559;SDS011;2803;47.916;8.074;2022-09-12T06:29:50;2.33;;;2.00;;
5559;SDS011;2803;47.916;8.074;2022-09-12T06:32:17;2.30;;;2.10;;
5559;SDS011;2803;47.916;8.074;2022-09-12T06:34:43;2.30;;;2.10;;
5559;SDS011;2803;47.916;8.074;2022-09-12T06:37:12;8.20;;;1.83;;
5559;SDS011;2803;47.916;8.074;2022-09-12T06:39:41;2.00;;;1.77;;
5559;SDS011;2803;47.916;8.074;2022-09-12T06:42:10;3.60;;;1.90;;
5559;SDS011;2803;47.916;8.074;2022-09-12T06:44:39;5.70;;;2.10;;
5559;SDS011;2803;47.916;8.074;2022-09-12T06:47:07;2.00;;;1.67;;
5559;SDS011;2803;47.916;8.074;2022-09-12T06:49:34;2.10;;;1.77;;
5559;SDS011;2803;47.916;8.074;2022-09-12T06:52:01;6.30;;;2.03;;
5559;SDS011;2803;47.916;8.074;2022-09-12T06:54:28;4.17;;;2.17;;
5559;SDS011;2803;47.916;8.074;2022-09-12T06:56:56;4.10;;;2.03;;
5559;SDS011;2803;47.916;8.074;2022-09-12T06:59:24;4.20;;;2.40;;
5559;SDS011;2803;47.916;8.074;2022-09-12T07:01:51;3.83;;;2.20;;
5559;SDS011;2803;47.916;8.074;2022-09-12T07:04:19;3.00;;;2.10;;
5559;SDS011;2803;47.916;8.074;2022-09-12T07:06:46;2.30;;;2.00;;
5559;SDS011;2803;47.916;8.074;2022-09-12T07:09:13;3.70;;;2.10;;
5559;SDS011;2803;47.916;8.074;2022-09-12T07:11:41;3.70;;;1.77;;
5559;SDS011;2803;47.916;8.074;2022-09-12T07:14:09;3.20;;;2.30;;
5559;SDS011;2803;47.916;8.074;2022-09-12T07:16:39;2.30;;;2.10;;
5559;SDS011;2803;47.916;8.074;2022-09-12T07:19:06;3.77;;;2.50;;
5559;SDS011;2803;47.916;8.074;2022-09-12T07:21:33;2.40;;;2.20;;
5559;SDS011;2803;47.916;8.074;2022-09-12T07:24:03;3.50;;;1.77;;
5559;SDS011;2803;47.916;8.074;2022-09-12T07:26:31;2.90;;;1.90;;
5559;SDS011;2803;47.916;8.074;2022-09-12T07:28:57;7.80;;;2.70;;
5559;SDS011;2803;47.916;8.074;2022-09-12T07:31:25;4.70;;;2.17;;
5559;SDS011;2803;47.916;8.074;2022-09-12T07:33:54;2.30;;;2.10;;
5559;SDS011;2803;47.916;8.074;2022-09-12T07:36:21;3.63;;;2.13;;
5559;SDS011;2803;47.916;8.074;2022-09-12T07:38:52;4.33;;;1.90;;
5559;SDS011;2803;47.916;8.074;2022-09-12T07:41:20;3.17;;;1.73;;
5559;SDS011;2803;47.916;8.074;2022-09-12T07:43:50;3.10;;;1.83;;
5559;SDS011;2803;47.916;8.074;2022-09-12T07:46:19;2.13;;;1.93;;
5559;SDS011;2803;47.916;8.074;2022-09-12T07:48:48;2.33;;;1.90;;
5559;SDS011;2803;47.916;8.074;2022-09-12T07:51:16;4.03;;;2.07;;
5559;SDS011;2803;47.916;8.074;2022-09-12T07:53:43;3.27;;;1.90;;
5559;SDS011;2803;47.916;8.074;2022-09-12T07:56:12;1.90;;;1.73;;
5559;SDS011;2803;47.916;8.074;2022-09-12T07:58:39;7.80;;;2.10;;
5559;SDS011;2803;47.916;8.074;2022-09-12T08:01:08;2.20;;;1.50;;
5559;SDS011;2803;47.916;8.074;2022-09-12T08:03:37;2.53;;;2.20;;
5559;SDS011;2803;47.916;8.074;2022-09-12T08:06:05;5.10;;;1.90;;
5559;SDS011;2803;47.916;8.074;2022-09-12T08:08:35;2.30;;;1.67;;
5559;SDS011;2803;47.916;8.074;2022-09-12T08:11:03;2.57;;;1.80;;
5559;SDS011;2803;47.916;8.074;2022-09-12T08:13:32;1.60;;;1.40;;
5559;SDS011;2803;47.916;8.074;2022-09-12T08:16:02;5.10;;;1.30;;
5559;SDS011;2803;47.916;8.074;2022-09-12T08:18:31;1.40;;;1.20;;
5559;SDS011;2803;47.916;8.074;2022-09-12T08:20:58;1.67;;;1.27;;
5559;SDS011;2803;47.916;8.074;2022-09-12T08:23:26;6.60;;;1.53;;
5559;SDS011;2803;47.916;8.074;2022-09-12T08:25:55;2.53;;;1.17;;
5559;SDS011;2803;47.916;8.074;2022-09-12T08:28:22;1.63;;;1.10;;
5559;SDS011;2803;47.916;8.074;2022-09-12T08:30:49;1.77;;;1.03;;
5559;SDS011;2803;47.916;8.074;2022-09-12T08:33:16;1.70;;;1.07;;
5559;SDS011;2803;47.916;8.074;2022-09-12T08:35:42;2.27;;;1.10;;
5559;SDS011;2803;47.916;8.074;2022-09-12T08:38:09;1.20;;;1.10;;
5559;SDS011;2803;47.916;8.074;2022-09-12T08:40:39;3.57;;;1.47;;
5559;SDS011;2803;47.916;8.074;2022-09-12T08:43:16;3.23;;;1.20;;
5559;SDS011;2803;47.916;8.074;2022-09-12T08:45:57;1.37;;;1.03;;
5559;SDS011;2803;47.916;8.074;2022-09-12T08:48:27;2.13;;;0.80;;
5559;SDS011;2803;47.916;8.074;2022-09-12T08:50:55;1.83;;;0.97;;
5559;SDS011;2803;47.916;8.074;2022-09-12T08:53:23;1.10;;;0.80;;
5559;SDS011;2803;47.916;8.074;2022-09-12T08:55:51;1.60;;;0.87;;
5559;SDS011;2803;47.916;8.074;2022-09-12T08:58:24;3.20;;;1.13;;
5559;SDS011;2803;47.916;8.074;2022-09-12T09:00:54;1.20;;;1.00;;
5559;SDS011;2803;47.916;8.074;2022-09-12T09:06:30;2.67;;;1.20;;
5559;SDS011;2803;47.916;8.074;2022-09-12T09:09:08;1.23;;;1.03;;
5559;SDS011;2803;47.916;8.074;2022-09-12T09:11:45;3.13;;;1.10;;
5559;SDS011;2803;47.916;8.074;2022-09-12T09:14:30;1.30;;;0.87;;
5559;SDS011;2803;47.916;8.074;2022-09-12T09:17:17;1.87;;;0.90;;
5559;SDS011;2803;47.916;8.074;2022-09-12T09:19:50;1.10;;;0.90;;
5559;SDS011;2803;47.916;8.074;2022-09-12T09:22:25;1.10;;;1.00;;
5559;SDS011;2803;47.916;8.074;2022-09-12T09:25:02;1.30;;;1.00;;
5559;SDS011;2803;47.916;8.074;2022-09-12T09:27:32;1.50;;;0.80;;
5559;SDS011;2803;47.916;8.074;2022-09-12T09:30:07;2.17;;;0.80;;
5559;SDS011;2803;47.916;8.074;2022-09-12T09:32:39;3.87;;;1.00;;
5559;SDS011;2803;47.916;8.074;2022-09-12T09:35:11;11.87;;;4.17;;
5559;SDS011;2803;47.916;8.074;2022-09-12T09:37:42;2.30;;;1.00;;
5559;SDS011;2803;47.916;8.074;2022-09-12T09:40:18;4.83;;;2.23;;
5559;SDS011;2803;47.916;8.074;2022-09-12T09:42:51;4.30;;;0.93;;
5559;SDS011;2803;47.916;8.074;2022-09-12T09:45:27;3.00;;;1.10;;
5559;SDS011;2803;47.916;8.074;2022-09-12T09:47:56;2.90;;;0.97;;
5559;SDS011;2803;47.916;8.074;2022-09-12T09:50:25;1.03;;;0.70;;
5559;SDS011;2803;47.916;8.074;2022-09-12T09:52:52;1.40;;;0.90;;
5559;SDS011;2803;47.916;8.074;2022-09-12T09:55:21;7.30;;;0.90;;
5559;SDS011;2803;47.916;8.074;2022-09-12T09:57:51;2.70;;;0.80;;
5559;SDS011;2803;47.916;8.074;2022-09-12T10:00:23;1.73;;;0.90;;
5559;SDS011;2803;47.916;8.074;2022-09-12T10:05:51;1.20;;;0.80;;
5559;SDS011;2803;47.916;8.074;2022-09-12T10:08:19;2.97;;;0.70;;
5559;SDS011;2803;47.916;8.074;2022-09-12T10:10:55;0.90;;;0.60;;
5559;SDS011;2803;47.916;8.074;2022-09-12T10:13:29;2.47;;;0.80;;
5559;SDS011;2803;47.916;8.074;2022-09-12T10:16:00;3.30;;;0.87;;
5559;SDS011;2803;47.916;8.074;2022-09-12T10:18:33;1.27;;;0.80;;
5559;SDS011;2803;47.916;8.074;2022-09-12T10:21:05;3.73;;;0.87;;
5559;SDS011;2803;47.916;8.074;2022-09-12T10:23:39;1.83;;;1.00;;
5559;SDS011;2803;47.916;8.074;2022-09-12T10:26:07;1.30;;;0.70;;
5559;SDS011;2803;47.916;8.074;2022-09-12T10:28:36;8.40;;;3.57;;
5559;SDS011;2803;47.916;8.074;2022-09-12T10:31:05;1.53;;;0.87;;
5559;SDS011;2803;47.916;8.074;2022-09-12T10:33:34;0.90;;;0.60;;
5559;SDS011;2803;47.916;8.074;2022-09-12T10:36:08;2.40;;;0.80;;
5559;SDS011;2803;47.916;8.074;2022-09-12T10:38:35;0.90;;;0.50;;
5559;SDS011;2803;47.916;8.074;2022-09-12T10:41:02;2.57;;;0.80;;
5559;SDS011;2803;47.916;8.074;2022-09-12T10:43:33;1.10;;;0.80;;
5559;SDS011;2803;47.916;8.074;2022-09-12T10:48:47;3.20;;;0.73;;
5559;SDS011;2803;47.916;8.074;2022-09-12T10:51:25;2.20;;;0.80;;
5559;SDS011;2803;47.916;8.074;2022-09-12T10:53:53;1.00;;;0.67;;
5559;SDS011;2803;47.916;8.074;2022-09-12T10:56:21;0.90;;;0.60;;
5559;SDS011;2803;47.916;8.074;2022-09-12T10:58:58;1.57;;;0.77;;
5559;SDS011;2803;47.916;8.074;2022-09-12T11:01:37;4.20;;;0.97;;
5559;SDS011;2803;47.916;8.074;2022-09-12T11:04:13;1.10;;;0.80;;
5559;SDS011;2803;47.916;8.074;2022-09-12T11:06:51;1.87;;;1.07;;
5559;SDS011;2803;47.916;8.074;2022-09-12T11:09:28;3.90;;;1.00;;
5559;SDS011;2803;47.916;8.074;2022-09-12T11:12:03;3.03;;;1.00;;
5559;SDS011;2803;47.916;8.074;2022-09-12T11:14:40;1.83;;;0.80;;
5559;SDS011;2803;47.916;8.074;2022-09-12T11:17:18;2.50;;;0.80;;
5559;SDS011;2803;47.916;8.074;2022-09-12T11:20:01;0.97;;;0.70;;
5559;SDS011;2803;47.916;8.074;2022-09-12T11:22:42;2.43;;;0.90;;
5559;SDS011;2803;47.916;8.074;2022-09-12T11:25:28;1.00;;;0.60;;
5559;SDS011;2803;47.916;8.074;2022-09-12T11:28:05;1.17;;;0.60;;
5559;SDS011;2803;47.916;8.074;2022-09-12T11:30:48;1.33;;;0.80;;
5559;SDS011;2803;47.916;8.074;2022-09-12T11:33:26;2.03;;;1.00;;
5559;SDS011;2803;47.916;8.074;2022-09-12T11:36:04;1.50;;;0.80;;
5559;SDS011;2803;47.916;8.074;2022-09-12T11:38:42;1.57;;;0.90;;
5559;SDS011;2803;47.916;8.074;2022-09-12T11:41:16;0.90;;;0.70;;
5559;SDS011;2803;47.916;8.074;2022-09-12T11:43:49;1.00;;;0.70;;
5559;SDS011;2803;47.916;8.074;2022-09-12T11:46:20;3.57;;;0.80;;
5559;SDS011;2803;47.916;8.074;2022-09-12T11:48:53;1.30;;;0.80;;
5559;SDS011;2803;47.916;8.074;2022-09-12T11:51:25;2.70;;;0.90;;
5559;SDS011;2803;47.916;8.074;2022-09-12T11:54:00;10.90;;;3.47;;
5559;SDS011;2803;47.916;8.074;2022-09-12T11:56:32;1.57;;;0.80;;
5559;SDS011;2803;47.916;8.074;2022-09-12T11:59:02;1.10;;;0.83;;
5559;SDS011;2803;47.916;8.074;2022-09-12T12:01:37;1.10;;;0.77;;
5559;SDS011;2803;47.916;8.074;2022-09-12T12:04:07;2.65;;;1.00;;
5559;SDS011;2803;47.916;8.074;2022-09-12T12:06:39;1.10;;;0.80;;
5559;SDS011;2803;47.916;8.074;2022-09-12T12:09:15;1.10;;;0.87;;
5559;SDS011;2803;47.916;8.074;2022-09-12T12:11:42;5.00;;;1.00;;
5559;SDS011;2803;47.916;8.074;2022-09-12T12:14:14;1.20;;;0.80;;
5559;SDS011;2803;47.916;8.074;2022-09-12T12:16:43;4.10;;;1.00;;
5559;SDS011;2803;47.916;8.074;2022-09-12T12:19:20;1.67;;;1.00;;
5559;SDS011;2803;47.916;8.074;2022-09-12T12:21:55;6.30;;;0.80;;
5559;SDS011;2803;47.916;8.074;2022-09-12T12:24:32;6.83;;;1.10;;
5559;SDS011;2803;47.916;8.074;2022-09-12T12:26:59;1.50;;;0.87;;
5559;SDS011;2803;47.916;8.074;2022-09-12T12:29:35;1.80;;;1.00;;
5559;SDS011;2803;47.916;8.074;2022-09-12T12:32:17;2.17;;;0.90;;
5559;SDS011;2803;47.916;8.074;2022-09-12T12:34:45;1.10;;;0.90;;
5559;SDS011;2803;47.916;8.074;2022-09-12T12:40:20;1.80;;;1.03;;
5559;SDS011;2803;47.916;8.074;2022-09-12T12:46:02;2.97;;;1.40;;
5559;SDS011;2803;47.916;8.074;2022-09-12T12:48:32;4.43;;;0.90;;
5559;SDS011;2803;47.916;8.074;2022-09-12T12:53:55;1.80;;;0.90;;
5559;SDS011;2803;47.916;8.074;2022-09-12T12:56:27;2.73;;;1.50;;
5559;SDS011;2803;47.916;8.074;2022-09-12T12:58:59;1.77;;;1.30;;
5559;SDS011;2803;47.916;8.074;2022-09-12T13:01:28;2.30;;;1.10;;
5559;SDS011;2803;47.916;8.074;2022-09-12T13:03:55;2.80;;;1.00;;
5559;SDS011;2803;47.916;8.074;2022-09-12T13:06:28;2.93;;;1.27;;
5559;SDS011;2803;47.916;8.074;2022-09-12T13:08:59;4.80;;;1.13;;
5559;SDS011;2803;47.916;8.074;2022-09-12T13:11:31;3.43;;;1.10;;
5559;SDS011;2803;47.916;8.074;2022-09-12T13:14:00;2.13;;;1.20;;
5559;SDS011;2803;47.916;8.074;2022-09-12T13:16:30;3.77;;;0.80;;
5559;SDS011;2803;47.916;8.074;2022-09-12T13:19:00;3.73;;;1.43;;
5559;SDS011;2803;47.916;8.074;2022-09-12T13:21:29;2.43;;;1.00;;
5559;SDS011;2803;47.916;8.074;2022-09-12T13:23:59;2.30;;;1.17;;
5559;SDS011;2803;47.916;8.074;2022-09-12T13:26:27;1.83;;;1.10;;
5559;SDS011;2803;47.916;8.074;2022-09-12T13:29:08;1.50;;;1.10;;
5559;SDS011;2803;47.916;8.074;2022-09-12T13:31:36;2.50;;;1.10;;
5559;SDS011;2803;47.916;8.074;2022-09-12T13:34:04;1.93;;;0.90;;
5559;SDS011;2803;47.916;8.074;2022-09-12T13:39:20;4.60;;;1.30;;
5559;SDS011;2803;47.916;8.074;2022-09-12T13:44:53;4.10;;;1.40;;
5559;SDS011;2803;47.916;8.074;2022-09-12T13:47:24;1.53;;;1.00;;
5559;SDS011;2803;47.916;8.074;2022-09-12T13:49:55;2.33;;;1.07;;
5559;SDS011;2803;47.916;8.074;2022-09-12T13:52:23;2.77;;;1.40;;
5559;SDS011;2803;47.916;8.074;2022-09-12T13:54:53;1.50;;;1.13;;
5559;SDS011;2803;47.916;8.074;2022-09-12T13:57:27;2.03;;;1.10;;
5559;SDS011;2803;47.916;8.074;2022-09-12T13:59:57;3.43;;;1.23;;
5559;SDS011;2803;47.916;8.074;2022-09-12T14:02:25;2.10;;;1.13;;
5559;SDS011;2803;47.916;8.074;2022-09-12T14:04:56;5.30;;;1.27;;
5559;SDS011;2803;47.916;8.074;2022-09-12T14:07:37;4.00;;;1.30;;
5559;SDS011;2803;47.916;8.074;2022-09-12T14:10:18;5.53;;;1.17;;
5559;SDS011;2803;47.916;8.074;2022-09-12T14:12:49;3.10;;;1.40;;
5559;SDS011;2803;47.916;8.074;2022-09-12T14:15:17;2.40;;;1.20;;
5559;SDS011;2803;47.916;8.074;2022-09-12T14:17:48;6.43;;;1.27;;
5559;SDS011;2803;47.916;8.074;2022-09-12T14:20:16;4.87;;;1.43;;
5559;SDS011;2803;47.916;8.074;2022-09-12T14:22:47;2.90;;;1.30;;
5559;SDS011;2803;47.916;8.074;2022-09-12T14:25:15;5.13;;;1.27;;
5559;SDS011;2803;47.916;8.074;2022-09-12T14:27:44;2.20;;;1.70;;
5559;SDS011;2803;47.916;8.074;2022-09-12T14:30:24;2.90;;;1.33;;
5559;SDS011;2803;47.916;8.074;2022-09-12T14:33:02;12.70;;;1.43;;
5559;SDS011;2803;47.916;8.074;2022-09-12T14:35:30;2.60;;;1.13;;
5559;SDS011;2803;47.916;8.074;2022-09-12T14:38:03;6.63;;;1.20;;
5559;SDS011;2803;47.916;8.074;2022-09-12T14:40:36;1.80;;;1.27;;
5559;SDS011;2803;47.916;8.074;2022-09-12T14:43:14;2.23;;;1.50;;
5559;SDS011;2803;47.916;8.074;2022-09-12T14:45:48;1.80;;;1.50;;
5559;SDS011;2803;47.916;8.074;2022-09-12T14:48:19;4.30;;;1.50;;
5559;SDS011;2803;47.916;8.074;2022-09-12T14:50:47;4.43;;;1.40;;
5559;SDS011;2803;47.916;8.074;2022-09-12T14:53:20;4.00;;;1.37;;
5559;SDS011;2803;47.916;8.074;2022-09-12T14:55:51;6.97;;;1.43;;
5559;SDS011;2803;47.916;8.074;2022-09-12T14:58:22;8.53;;;1.47;;
5559;SDS011;2803;47.916;8.074;2022-09-12T15:00:53;10.13;;;1.47;;
5559;SDS011;2803;47.916;8.074;2022-09-12T15:03:23;2.57;;;1.87;;
5559;SDS011;2803;47.916;8.074;2022-09-12T15:05:52;5.10;;;2.07;;
5559;SDS011;2803;47.916;8.074;2022-09-12T15:08:19;1.53;;;1.20;;
5559;SDS011;2803;47.916;8.074;2022-09-12T15:10:45;5.13;;;1.43;;
5559;SDS011;2803;47.916;8.074;2022-09-12T15:13:14;6.37;;;1.90;;
5559;SDS011;2803;47.916;8.074;2022-09-12T15:15:43;5.23;;;2.00;;
5559;SDS011;2803;47.916;8.074;2022-09-12T15:18:12;1.80;;;1.50;;
5559;SDS011;2803;47.916;8.074;2022-09-12T15:20:40;5.33;;;2.03;;
5559;SDS011;2803;47.916;8.074;2022-09-12T15:23:11;6.57;;;1.97;;
5559;SDS011;2803;47.916;8.074;2022-09-12T15:25:40;7.70;;;2.40;;
5559;SDS011;2803;47.916;8.074;2022-09-12T15:28:11;4.73;;;2.50;;
5559;SDS011;2803;47.916;8.074;2022-09-12T15:30:42;8.33;;;2.17;;
5559;SDS011;2803;47.916;8.074;2022-09-12T15:33:09;5.43;;;2.50;;
5559;SDS011;2803;47.916;8.074;2022-09-12T15:35:38;5.13;;;1.77;;
5559;SDS011;2803;47.916;8.074;2022-09-12T15:38:05;3.63;;;1.80;;
5559;SDS011;2803;47.916;8.074;2022-09-12T15:40:32;3.27;;;1.93;;
5559;SDS011;2803;47.916;8.074;2022-09-12T15:42:58;4.93;;;1.90;;
5559;SDS011;2803;47.916;8.074;2022-09-12T15:45:26;2.10;;;1.50;;
5559;SDS011;2803;47.916;8.074;2022-09-12T15:47:54;5.87;;;1.93;;
5559;SDS011;2803;47.916;8.074;2022-09-12T15:50:21;3.93;;;1.60;;
5559;SDS011;2803;47.916;8.074;2022-09-12T15:52:49;4.17;;;1.73;;
5559;SDS011;2803;47.916;8.074;2022-09-12T15:55:17;2.53;;;1.70;;
5559;SDS011;2803;47.916;8.074;2022-09-12T15:57:44;11.60;;;2.23;;